Huvudsida
METAR-TAF:

METAR-TAF

Flygplatser :

Militär flygplats

Khamis Mushait, Saudiarabien

latitud: 18-18N, longitud: 042-48E, höjd: 2066 m

Aktuellt väderrapport

Denna rapport gjordes för 56 minuter sedan, klockan 09:00 UTC
Vind 12 kt från väst/sydväst
Temperatur 27°C
Fuktighet 32%
Tryck 1023 hPa
Sikt 10 km eller mer
Få moln på en höjd av 2200 ft

METAR: OEKM 270900Z 24012KT 9999 FEW022 27/09 Q1023 NOSIG

Tid: 12:56 (09:56 UTC)

Väderprognos

Denna rapport gjordes för 4 timmar och 56 minuter sedan, klockan 05:00 UTC
Prognos gäller från 27 kl. 06 UTC till 27 kl. 15 UTC
Vind 8 kt från syd/sydväst i byarna ända upp till 18 kt
Sikt 10 km eller mer
Spridda moln på en höjd av 2000 ft
Brutna moln på en höjd av 8000 ft
Temporärt
från 27 kl. 06 UTC till 27 kl. 15 UTC
Sikt: 6000 m
Brutna moln på en höjd av 2000 ft
Få moln på en höjd av 2500 ft, Cumulonimbus.
åska, regn

TAF: OEKM 270500Z 2706/2715 20008G18KT 9999 SCT020 BKN080 TEMPO 2706/2715 6000 TSRA BKN020 FEW025CB

Aktuella väderrapporter och prognoser från 4000 flygplatser (METAR- och TAF-rapporter).

De tillgängliga stationerna syns som gula och röda prickar på kartan.

För musen över prickarna för att se namnen på stationerna.

Klicka sedan för att få väderrapporter och prognoser.

För att ändra kartan: Klicka på de gröna knapparna med ett svart kors på för att zooma in; den gröna knappen med ett streck på för att zooma ut; eller på de gröna pilarna för angränsande kartor.


METAR-TAF: